< < Back
Terminal Aerodrome Forecast


Current Version              Previous Versions:   1  2  3  4  5  6  7  8  9  

Terminal Aerodrome Forecast

145
FTUS42 KJAX 011700
TAFSSI
TAF
KSSI 011721Z 0118/0218 13009KT P6SM SCT040 SCT250
     FM020000 15005KT P6SM FEW040 BKN250
     FM020300 18006KT P6SM SCT250
     FM021000 23003KT P6SM SCT250
     FM021400 23004KT P6SM SCT030=

Latest METAR

342
SAUS70 KWBC 020800 RRG
MTRSSI
METAR KSSI 020753Z AUTO VRB03KT 10SM CLR 27/24 A3004 RMK AO2 SLP173
T02670239


USA.gov is the U.S. government's official web portal to all federal, state and local government web resources and services.